Time;durP1;ratioP1;P1;durP2;ratioP2;P2;SDS_P1;SDS_P2;PMS_P1;PMS_P2;Temp;Humidity;BMP_temperature;BMP_pressure;BME280_temperature;BME280_humidity;BME280_pressure;Samples;Min_cycle;Max_cycle;Signal;HPM_P1;HPM_P2
2021/03/27 00:01:11;;;;;;;15.05;9.35;;;;;;;7.44;53.47;92894.28;2054934;69;20644;-76
2021/03/27 00:03:47;;;;;;;16.02;9.48;;;;;;;7.44;54.01;92883.09;2057771;69;20142;-73
2021/03/27 00:06:29;;;;;;;13.55;9.50;;;;;;;7.81;52.66;92889.34;2057881;69;20633;-75
2021/03/27 00:08:59;;;;;;;18.40;9.82;;;;;;;7.23;54.00;92889.22;2057809;69;20597;-75
2021/03/27 00:12:01;;;;;;;15.43;9.68;;;;;;;7.48;53.36;92880.59;2062874;69;20190;-76
2021/03/27 00:15:03;;;;;;;15.70;9.80;;;;;;;6.83;55.66;92885.53;2065036;69;20176;-74
2021/03/27 00:17:39;;;;;;;14.80;8.90;;;;;;;7.37;54.58;92879.06;2061747;69;20144;-76
2021/03/27 00:20:21;;;;;;;14.43;9.90;;;;;;;7.13;54.21;92872.38;2065218;69;20144;-76
2021/03/27 00:22:58;;;;;;;16.85;10.25;;;;;;;7.39;53.56;92877.19;2065008;69;20216;-76
2021/03/27 00:25:36;;;;;;;17.80;9.70;;;;;;;7.12;54.15;92873.72;2065131;69;20152;-75
2021/03/27 00:28:04;;;;;;;16.08;9.80;;;;;;;7.31;53.97;92881.44;2064880;69;20169;-75
2021/03/27 00:30:57;;;;;;;15.57;9.63;;;;;;;7.60;54.38;92878.69;2064977;69;20133;-76
2021/03/27 00:33:35;;;;;;;17.15;9.52;;;;;;;7.27;54.17;92881.84;2065301;69;20540;-75
2021/03/27 00:36:15;;;;;;;16.05;10.02;;;;;;;7.22;53.96;92882.13;2061635;69;20156;-76
2021/03/27 00:38:47;;;;;;;13.32;9.55;;;;;;;7.08;54.94;92887.41;2065122;69;20298;-77
2021/03/27 00:41:44;;;;;;;17.00;9.85;;;;;;;7.22;54.63;92882.13;2067282;69;20148;-74
2021/03/27 00:44:13;;;;;;;13.27;8.98;;;;;;;7.49;53.63;92884.84;2068112;69;20678;-76
2021/03/27 00:46:42;;;;;;;15.80;9.60;;;;;;;7.28;52.73;92880.53;2064833;69;20327;-76
2021/03/27 00:49:23;;;;;;;14.32;8.95;;;;;;;6.73;55.54;92887.53;2068267;69;20588;-77
2021/03/27 00:52:00;;;;;;;16.65;9.70;;;;;;;6.39;57.26;92898.84;2064693;69;20151;-76
2021/03/27 00:54:49;;;;;;;18.52;9.73;;;;;;;6.81;56.29;92888.16;2064845;69;20628;-77
2021/03/27 00:57:35;;;;;;;16.50;10.07;;;;;;;7.08;55.04;92890.19;2068122;69;20144;-77
2021/03/27 01:00:15;;;;;;;16.40;9.70;;;;;;;6.97;55.33;92883.09;2068130;69;20139;-76
2021/03/27 01:03:08;;;;;;;15.98;9.85;;;;;;;7.15;56.32;92869.75;2061772;69;20246;-77
2021/03/27 01:05:55;;;;;;;13.95;9.07;;;;;;;6.74;55.95;92875.03;2067722;69;20153;-79
2021/03/27 01:08:57;;;;;;;18.02;10.02;;;;;;;7.22;54.80;92865.34;2063982;69;20183;-76
2021/03/27 01:12:08;;;;;;;18.52;9.82;;;;;;;6.79;56.96;92871.22;2068271;69;20149;-77
2021/03/27 01:14:49;;;;;;;14.18;10.27;;;;;;;6.98;57.05;92864.97;2054227;70;20181;-75
2021/03/27 01:17:21;;;;;;;13.80;9.35;;;;;;;6.91;56.45;92865.81;2054029;70;20613;-76
2021/03/27 01:20:01;;;;;;;19.65;10.43;;;;;;;6.93;55.70;92874.38;2054007;70;20150;-76
2021/03/27 01:22:29;;;;;;;18.95;10.25;;;;;;;6.99;57.02;92860.09;2051266;70;20138;-76
2021/03/27 01:25:02;;;;;;;16.73;10.23;;;;;;;6.92;56.37;92858.91;2051127;70;20582;-76
2021/03/27 01:27:49;;;;;;;15.88;10.02;;;;;;;6.92;55.89;92855.34;2051126;70;20521;-76
2021/03/27 01:30:54;;;;;;;18.17;10.50;;;;;;;6.99;56.98;92848.91;2051207;70;20162;-75
2021/03/27 01:33:43;;;;;;;;;;;;;;;6.56;58.02;92851.25;2054158;70;20184;-76
2021/03/27 01:36:22;;;;;;;15.25;9.02;;;;;;;6.65;57.19;92842.16;2053868;70;20069;-76
2021/03/27 01:39:16;;;;;;;14.77;9.63;;;;;;;6.90;56.31;92847.56;2053730;69;20537;-75
2021/03/27 01:42:04;;;;;;;19.52;9.45;;;;;;;7.05;55.64;92838.91;2056873;69;20644;-75
2021/03/27 01:45:01;;;;;;;15.20;9.15;;;;;;;6.61;57.31;92845.38;2054095;69;20522;-75
2021/03/27 01:47:44;;;;;;;14.25;9.75;;;;;;;7.04;57.11;92845.09;2057559;69;20261;-76
2021/03/27 01:50:15;;;;;;;19.17;10.38;;;;;;;6.78;57.68;92838.97;2057516;69;20145;-76
2021/03/27 01:52:46;;;;;;;15.85;9.73;;;;;;;6.52;57.41;92832.09;2064904;69;20617;-75
2021/03/27 01:55:48;;;;;;;14.88;9.35;;;;;;;6.32;58.83;92830.50;2064908;69;20156;-75
2021/03/27 01:58:23;;;;;;;14.07;9.65;;;;;;;6.67;57.27;92836.72;2061450;69;20160;-75
2021/03/27 02:00:55;;;;;;;21.02;10.48;;;;;;;6.62;56.72;92832.13;2064980;69;20145;-76
2021/03/27 02:03:36;;;;;;;14.45;10.15;;;;;;;6.92;56.01;92825.34;2065064;69;20145;-76
2021/03/27 02:06:12;;;;;;;16.23;10.10;;;;;;;6.70;56.34;92815.97;2065045;69;20161;-75
2021/03/27 02:08:55;;;;;;;16.38;9.95;;;;;;;6.60;57.71;92824.34;2064304;69;20215;-74
2021/03/27 02:11:47;;;;;;;16.70;10.02;;;;;;;6.15;59.10;92820.13;2064844;69;20159;-75
2021/03/27 02:14:43;;;;;;;16.50;10.48;;;;;;;6.05;59.22;92825.66;2063756;69;20659;-75
2021/03/27 02:17:19;;;;;;;14.27;9.38;;;;;;;6.27;57.77;92828.72;2064862;69;20161;-75
2021/03/27 02:20:00;;;;;;;17.15;10.18;;;;;;;6.14;58.20;92826.28;2064640;69;20252;-76
2021/03/27 02:22:30;;;;;;;14.30;9.43;;;;;;;6.06;58.52;92823.59;2064778;69;20266;-76
2021/03/27 02:25:20;;;;;;;15.43;9.95;;;;;;;6.31;58.18;92826.22;2061458;69;20244;-75
2021/03/27 02:28:01;;;;;;;17.23;10.55;;;;;;;5.46;60.06;92825.78;2064889;69;20185;-76
2021/03/27 02:30:38;;;;;;;20.35;9.93;;;;;;;5.38;60.35;92825.09;2064701;69;20141;-75
2021/03/27 02:33:37;;;;;;;15.30;9.73;;;;;;;5.73;60.70;92834.22;2064867;69;20149;-76
2021/03/27 02:36:18;;;;;;;16.00;10.35;;;;;;;4.95;62.81;92838.34;2063734;69;20156;-76
2021/03/27 02:39:02;;;;;;;15.32;9.77;;;;;;;5.41;62.15;92844.25;2064968;69;20184;-76
2021/03/27 02:41:57;;;;;;;17.05;10.38;;;;;;;5.46;60.10;92848.09;2067654;69;20163;-75
2021/03/27 02:44:31;;;;;;;22.50;10.52;;;;;;;5.93;60.32;92832.34;2062070;69;20619;-76
2021/03/27 02:47:16;;;;;;;17.83;10.82;;;;;;;5.82;60.65;92823.13;2068334;69;20539;-76
2021/03/27 02:49:55;;;;;;;18.23;10.05;;;;;;;5.51;60.76;92824.78;2068365;69;20149;-75
2021/03/27 02:52:51;;;;;;;17.83;11.70;;;;;;;5.57;60.50;92826.00;2068440;69;20157;-76
2021/03/27 02:55:35;;;;;;;16.20;10.98;;;;;;;5.45;60.11;92821.47;2068355;69;20262;-75
2021/03/27 02:58:07;;;;;;;16.80;10.77;;;;;;;5.06;62.99;92821.88;2068337;69;20156;-75
2021/03/27 03:00:43;;;;;;;17.77;12.00;;;;;;;5.19;62.13;92812.44;2068352;69;20201;-75
2021/03/27 03:03:26;;;;;;;19.77;12.40;;;;;;;5.38;61.09;92822.31;2068354;69;20140;-75
2021/03/27 03:06:17;;;;;;;22.00;12.00;;;;;;;5.34;61.12;92825.50;2068337;69;20218;-76
2021/03/27 03:09:00;;;;;;;18.08;11.75;;;;;;;5.41;60.80;92826.75;2068193;69;20156;-75
2021/03/27 03:11:37;;;;;;;22.67;12.77;;;;;;;4.58;64.71;92818.56;2068293;69;20267;-75
2021/03/27 03:14:12;;;;;;;17.20;11.98;;;;;;;5.12;62.12;92818.09;2068321;69;20148;-75
2021/03/27 03:16:45;;;;;;;17.83;12.15;;;;;;;4.82;63.21;92820.59;2068401;69;20608;-75
2021/03/27 03:19:46;;;;;;;21.95;12.55;;;;;;;4.67;64.14;92820.72;2068431;69;20592;-76
2021/03/27 03:22:21;;;;;;;20.20;12.18;;;;;;;5.09;62.20;92823.53;2064406;69;20152;-75
2021/03/27 03:24:52;;;;;;;21.73;12.80;;;;;;;5.01;62.04;92836.81;2068222;69;20164;-75
2021/03/27 03:27:48;;;;;;;18.67;12.00;;;;;;;5.15;61.26;92839.28;2068392;69;20152;-76
2021/03/27 03:30:48;;;;;;;18.30;12.18;;;;;;;5.00;62.00;92845.75;2068258;69;20144;-75
2021/03/27 03:33:32;;;;;;;24.05;13.63;;;;;;;5.02;61.66;92852.22;2068533;69;20172;-75
2021/03/27 03:36:09;;;;;;;22.23;13.45;;;;;;;5.30;60.71;92848.25;2068299;69;20140;-76
2021/03/27 03:38:47;;;;;;;21.98;12.90;;;;;;;5.25;60.76;92845.69;2068289;69;20148;-75
2021/03/27 03:41:50;;;;;;;23.42;13.70;;;;;;;5.11;61.12;92828.53;2068272;69;20600;-76
2021/03/27 03:44:18;;;;;;;23.80;14.40;;;;;;;4.95;62.40;92836.31;2068385;69;20155;-75
2021/03/27 03:46:50;;;;;;;23.58;13.15;;;;;;;4.90;61.36;92842.09;2068232;69;20172;-76
2021/03/27 03:49:31;;;;;;;21.77;12.73;;;;;;;4.91;62.11;92838.03;2068193;69;20187;-76
2021/03/27 03:52:30;;;;;;;19.65;12.40;;;;;;;4.34;62.29;92831.16;2068179;69;20179;-75
2021/03/27 03:55:11;;;;;;;23.83;13.77;;;;;;;4.38;63.32;92834.31;2068112;69;20167;-75
2021/03/27 03:58:02;;;;;;;21.58;13.48;;;;;;;4.58;63.13;92840.84;2068298;69;20168;-76
2021/03/27 04:00:51;;;;;;;23.48;14.82;;;;;;;4.46;62.91;92839.84;2068217;69;20145;-76
2021/03/27 04:03:25;;;;;;;25.58;13.23;;;;;;;4.84;62.07;92845.88;2068213;69;20164;-74
2021/03/27 04:06:09;;;;;;;26.92;14.55;;;;;;;4.90;62.53;92844.88;2064877;69;20176;-76
2021/03/27 04:08:43;;;;;;;23.88;14.70;;;;;;;4.30;64.39;92856.66;2068102;69;20129;-76
2021/03/27 04:11:34;;;;;;;24.80;15.05;;;;;;;4.77;62.82;92860.63;2068172;69;20168;-75
2021/03/27 04:14:07;;;;;;;25.88;14.52;;;;;;;4.78;62.82;92858.56;2068194;69;20199;-75
2021/03/27 04:16:39;;;;;;;24.60;14.40;;;;;;;4.83;61.79;92863.19;2068271;69;20214;-75
2021/03/27 04:19:13;;;;;;;24.60;13.52;;;;;;;5.12;62.05;92849.53;2068236;69;20144;-75
2021/03/27 04:21:51;;;;;;;22.45;14.32;;;;;;;5.30;60.78;92862.19;2068176;69;20136;-76
2021/03/27 04:24:27;;;;;;;23.60;14.23;;;;;;;5.40;60.69;92856.72;2064729;69;20618;-75
2021/03/27 04:27:07;;;;;;;24.13;13.68;;;;;;;4.75;62.40;92854.13;2068173;69;20516;-76
2021/03/27 04:30:02;;;;;;;23.95;13.60;;;;;;;4.79;62.14;92848.88;2068140;69;20160;-75
2021/03/27 04:32:54;;;;;;;24.17;13.90;;;;;;;4.97;61.99;92844.09;2067238;69;20184;-75
2021/03/27 04:35:33;;;;;;;25.38;14.65;;;;;;;5.09;61.46;92859.06;2068295;69;20552;-74
2021/03/27 04:38:23;;;;;;;23.20;14.68;;;;;;;5.04;61.66;92846.06;2068162;69;20232;-76
2021/03/27 04:40:56;;;;;;;26.15;14.30;;;;;;;5.16;61.65;92849.88;2068092;69;20161;-75
2021/03/27 04:43:28;;;;;;;25.50;15.75;;;;;;;5.40;60.80;92853.19;2068202;69;20167;-75
2021/03/27 04:46:05;;;;;;;25.70;15.53;;;;;;;4.99;63.05;92872.16;2068357;69;20557;-76
2021/03/27 04:48:51;;;;;;;22.13;14.02;;;;;;;4.69;61.92;92865.50;2068176;69;20528;-76
2021/03/27 04:51:23;;;;;;;26.30;14.75;;;;;;;4.73;63.23;92863.06;2067967;69;20165;-76
2021/03/27 04:53:53;;;;;;;25.75;14.50;;;;;;;5.00;62.00;92868.06;2067979;69;20153;-74
2021/03/27 04:56:45;;;;;;;27.10;15.73;;;;;;;5.25;61.66;92865.25;2068083;69;20148;-74
2021/03/27 04:59:32;;;;;;;26.73;16.23;;;;;;;5.40;61.64;92858.75;2062736;69;20192;-74
2021/03/27 05:02:14;;;;;;;28.67;17.23;;;;;;;5.46;60.46;92859.28;2067911;69;20147;-74
2021/03/27 05:05:17;;;;;;;26.52;15.88;;;;;;;5.56;60.16;92860.84;2068193;69;20594;-75
2021/03/27 05:08:03;;;;;;;26.67;15.55;;;;;;;5.15;61.34;92873.53;2068096;69;20148;-74
2021/03/27 05:10:40;;;;;;;28.13;15.70;;;;;;;5.48;60.46;92873.41;2068095;69;20240;-75
2021/03/27 05:13:25;;;;;;;28.92;16.15;;;;;;;5.34;61.16;92876.50;2068145;69;20157;-73
2021/03/27 05:16:25;;;;;;;28.55;15.90;;;;;;;5.47;61.01;92871.91;2068205;69;20162;-75
2021/03/27 05:19:00;;;;;;;28.35;15.85;;;;;;;5.45;60.37;92874.53;2068015;69;20144;-74
2021/03/27 05:21:38;;;;;;;26.55;16.25;;;;;;;5.51;61.12;92881.38;2068092;69;20627;-73
2021/03/27 05:24:14;;;;;;;24.90;15.85;;;;;;;5.55;61.17;92880.97;2067936;69;20235;-74
2021/03/27 05:27:12;;;;;;;29.80;17.65;;;;;;;5.58;61.41;92877.00;2068132;69;20580;-74
2021/03/27 05:30:01;;;;;;;29.77;17.20;;;;;;;5.68;61.16;92877.09;2068180;69;20617;-76
2021/03/27 05:32:45;;;;;;;27.83;16.75;;;;;;;5.79;60.25;92887.78;2067980;69;20170;-75
2021/03/27 05:35:23;;;;;;;29.38;16.17;;;;;;;5.68;60.22;92893.84;2068016;69;20144;-75
2021/03/27 05:38:12;;;;;;;23.10;15.15;;;;;;;5.42;61.24;92898.03;2067933;69;20144;-74
2021/03/27 05:41:06;;;;;;;34.45;16.05;;;;;;;5.69;60.62;92893.28;2067921;69;20148;-74
2021/03/27 05:43:59;;;;;;;25.50;15.50;;;;;;;5.84;59.91;92904.28;2068010;69;20697;-74
2021/03/27 05:46:27;;;;;;;27.13;16.35;;;;;;;5.69;60.08;92901.66;2068015;69;20523;-74
2021/03/27 05:49:30;;;;;;;26.63;15.98;;;;;;;5.66;60.34;92900.03;2067965;69;20206;-74
2021/03/27 05:52:05;;;;;;;30.60;15.60;;;;;;;5.80;61.20;92894.84;2067926;69;20310;-75
2021/03/27 05:54:51;;;;;;;27.52;16.20;;;;;;;5.70;60.81;92894.75;2067842;69;20172;-75
2021/03/27 05:57:35;;;;;;;28.63;17.08;;;;;;;5.47;61.28;92911.00;2068020;69;20239;-72
2021/03/27 06:00:31;;;;;;;32.00;17.00;;;;;;;5.83;60.29;92904.88;2064654;69;20229;-76
2021/03/27 06:03:15;;;;;;;26.13;16.50;;;;;;;5.60;60.72;92921.88;2061864;69;20230;-75
2021/03/27 06:05:58;;;;;;;29.55;19.63;;;;;;;5.64;61.26;92927.78;2068011;69;20215;-76
2021/03/27 06:09:03;;;;;;;33.13;20.67;;;;;;;6.07;60.45;92922.88;2067887;69;20234;-76
2021/03/27 06:11:56;;;;;;;31.90;19.48;;;;;;;5.84;60.60;92914.72;2064557;69;20608;-76
2021/03/27 06:14:42;;;;;;;44.08;24.02;;;;;;;6.22;59.73;92913.59;2067902;69;20628;-75
2021/03/27 06:17:08;;;;;;;35.42;20.73;;;;;;;6.26;60.50;92911.84;2067934;69;20502;-76
2021/03/27 06:19:48;;;;;;;32.60;20.35;;;;;;;6.41;60.83;92899.72;2067884;69;20136;-75
2021/03/27 06:22:30;;;;;;;30.70;18.42;;;;;;;6.60;59.66;92902.66;2068128;69;20243;-76
2021/03/27 06:25:24;;;;;;;33.00;19.63;;;;;;;5.97;60.99;92906.06;2067869;69;20289;-77
2021/03/27 06:28:12;;;;;;;35.08;21.90;;;;;;;6.34;59.41;92906.91;2064546;69;20172;-74
2021/03/27 06:31:28;;;;;;;39.58;22.38;;;;;;;6.09;59.93;92923.03;2067847;69;20141;-74
2021/03/27 06:34:25;;;;;;;42.88;24.33;;;;;;;5.54;62.34;92926.94;2061904;69;20220;-74
2021/03/27 06:36:59;;;;;;;45.10;23.98;;;;;;;6.09;60.86;92923.81;2067855;69;20654;-75
2021/03/27 06:39:50;;;;;;;44.05;23.63;;;;;;;6.57;59.71;92942.97;2067761;69;20137;-74
2021/03/27 06:42:35;;;;;;;35.85;20.92;;;;;;;6.80;59.18;92944.72;2067861;69;20223;-76
2021/03/27 06:45:19;;;;;;;37.83;20.52;;;;;;;7.03;59.43;92945.13;2067898;69;20145;-75
2021/03/27 06:48:22;;;;;;;38.95;21.20;;;;;;;7.30;58.39;92939.50;2067826;69;20182;-76
2021/03/27 06:51:11;;;;;;;32.72;18.95;;;;;;;7.08;57.82;92949.72;2067937;69;20148;-75
2021/03/27 06:54:14;;;;;;;31.73;19.40;;;;;;;7.53;57.25;92952.41;2067818;69;20230;-75
2021/03/27 06:56:59;;;;;;;31.60;18.58;;;;;;;7.68;55.81;92937.41;2067896;69;20532;-74
2021/03/27 06:59:43;;;;;;;31.95;19.45;;;;;;;6.48;59.75;92945.72;2067849;69;20145;-75
2021/03/27 07:02:35;;;;;;;35.47;19.65;;;;;;;6.89;58.06;92938.44;2067798;69;20159;-76
2021/03/27 07:05:25;;;;;;;36.45;19.73;;;;;;;7.51;57.01;92938.97;2062434;69;20140;-75
2021/03/27 07:08:21;;;;;;;36.80;20.35;;;;;;;7.87;56.43;92940.97;2067683;69;20194;-75
2021/03/27 07:11:07;;;;;;;33.03;21.15;;;;;;;7.96;54.68;92950.72;2067679;69;20267;-75
2021/03/27 07:14:06;;;;;;;33.63;20.40;;;;;;;8.23;54.40;92956.19;2067769;69;20206;-75
2021/03/27 07:16:41;;;;;;;41.15;21.85;;;;;;;8.35;54.70;92959.16;2067867;69;20641;-75
2021/03/27 07:19:28;;;;;;;37.20;21.35;;;;;;;8.20;54.13;92957.41;2067797;69;20164;-75
2021/03/27 07:22:07;;;;;;;35.55;20.27;;;;;;;7.85;54.02;92962.50;2067779;69;20240;-75
2021/03/27 07:24:44;;;;;;;34.88;20.85;;;;;;;8.38;53.67;92963.59;2067963;69;20137;-74
2021/03/27 07:27:28;;;;;;;33.63;20.65;;;;;;;8.98;52.17;92972.13;2068299;69;20668;-74
2021/03/27 07:30:08;;;;;;;32.55;19.33;;;;;;;9.11;51.55;92982.88;2068424;69;20141;-75
2021/03/27 07:32:55;;;;;;;31.63;19.58;;;;;;;9.04;52.17;92989.41;2068181;69;20493;-75
2021/03/27 07:35:59;;;;;;;34.58;20.13;;;;;;;8.11;54.16;92983.38;2068228;69;20144;-75
2021/03/27 07:39:21;;;;;;;30.02;19.17;;;;;;;8.39;53.47;92993.16;2068083;69;20239;-75
2021/03/27 07:42:11;;;;;;;28.10;17.30;;;;;;;8.48;53.03;92995.22;2057272;69;20173;-76
2021/03/27 07:44:56;;;;;;;26.17;17.45;;;;;;;8.64;53.17;93004.06;2057828;69;20212;-76
2021/03/27 07:47:40;;;;;;;30.23;18.73;;;;;;;8.73;52.77;93013.81;2057838;69;20533;-76
2021/03/27 07:50:27;;;;;;;39.78;20.67;;;;;;;8.68;53.15;93018.41;2057827;69;20153;-79
2021/03/27 07:53:03;;;;;;;36.40;20.38;;;;;;;9.08;51.66;93029.00;2054854;69;20214;-75
2021/03/27 07:55:29;;;;;;;33.13;19.48;;;;;;;9.61;50.64;93034.78;2057724;69;20153;-76
2021/03/27 07:58:05;;;;;;;34.80;19.80;;;;;;;9.66;50.28;93045.69;2057684;69;20141;-76
2021/03/27 08:00:43;;;;;;;35.38;19.45;;;;;;;9.88;50.46;93054.22;2057482;69;20170;-76
2021/03/27 08:03:36;;;;;;;29.25;18.30;;;;;;;9.86;49.39;93051.28;2057553;69;20130;-75
2021/03/27 08:06:20;;;;;;;;;;;;;;;9.51;50.17;93059.38;2057678;69;20145;-76
2021/03/27 08:09:09;;;;;;;31.10;18.20;;;;;;;9.50;49.85;93055.81;2057544;69;20042;-76
2021/03/27 08:12:19;;;;;;;27.63;18.00;;;;;;;9.90;49.02;93057.91;2059322;69;20589;-75
2021/03/27 08:15:03;;;;;;;28.10;17.77;;;;;;;9.66;49.48;93051.31;2054059;70;20161;-76
2021/03/27 08:17:38;;;;;;;28.65;17.27;;;;;;;9.98;48.54;93059.78;2054176;70;20142;-76
2021/03/27 08:20:41;;;;;;;27.67;16.90;;;;;;;10.89;47.08;93056.75;2061702;69;20149;-79
2021/03/27 08:23:35;;;;;;;25.38;17.00;;;;;;;11.47;46.10;93058.31;2065114;69;20141;-74
2021/03/27 08:26:31;;;;;;;26.10;17.40;;;;;;;11.75;46.02;93059.34;2064771;69;20198;-74
2021/03/27 08:29:44;;;;;;;29.45;17.95;;;;;;;11.96;44.58;93062.09;2065086;69;20164;-75
2021/03/27 08:32:22;;;;;;;28.05;17.17;;;;;;;10.39;47.46;93071.75;2060097;69;20160;-75
2021/03/27 08:35:03;;;;;;;29.63;19.17;;;;;;;11.04;46.93;93067.59;2064999;69;20153;-76
2021/03/27 08:38:04;;;;;;;29.25;18.92;;;;;;;11.54;46.38;93077.81;2065044;69;20201;-74
2021/03/27 08:40:51;;;;;;;28.55;19.25;;;;;;;11.95;45.16;93081.09;2066213;69;20157;-81
2021/03/27 08:43:31;;;;;;;27.30;17.80;;;;;;;12.52;44.08;93078.19;2068237;69;20364;-78
2021/03/27 08:46:39;;;;;;;27.67;18.00;;;;;;;12.93;43.77;93078.47;2068491;69;20144;-81
2021/03/27 08:49:44;;;;;;;33.30;18.30;;;;;;;13.15;42.71;93081.13;2068153;69;20615;-78
2021/03/27 08:52:37;;;;;;;28.48;19.33;;;;;;;12.79;43.05;93080.47;2067435;69;20188;-82
2021/03/27 08:55:18;;;;;;;30.45;18.90;;;;;;;13.16;42.22;93085.41;2068076;69;20129;-81
2021/03/27 08:58:06;;;;;;;30.20;19.48;;;;;;;13.56;41.57;93089.06;2068086;69;20259;-74
2021/03/27 09:00:49;;;;;;;30.83;20.08;;;;;;;14.06;40.82;93081.91;2068246;69;20145;-78
2021/03/27 09:03:24;;;;;;;33.25;20.08;;;;;;;13.73;40.45;93083.69;2068078;69;20821;-76
2021/03/27 09:06:01;;;;;;;27.65;16.65;;;;;;;12.98;41.69;93074.53;2068055;69;20157;-75
2021/03/27 09:08:52;;;;;;;20.70;14.38;;;;;;;13.98;40.98;93076.56;2067976;69;20162;-79
2021/03/27 09:11:33;;;;;;;24.92;16.05;;;;;;;13.98;40.76;93077.28;2068054;69;20128;-76
2021/03/27 09:14:20;;;;;;;21.92;14.70;;;;;;;13.69;40.22;93077.06;2068074;69;20497;-78
2021/03/27 09:17:21;;;;;;;19.60;14.75;;;;;;;12.98;41.99;93079.44;2065715;69;20240;-77
2021/03/27 09:19:59;;;;;;;21.73;15.38;;;;;;;12.93;42.37;93078.47;2068277;69;20167;-79
2021/03/27 09:22:50;;;;;;;21.55;14.52;;;;;;;12.65;42.24;93086.03;2069006;69;20129;-77
2021/03/27 09:25:30;;;;;;;22.27;14.75;;;;;;;12.55;42.35;93090.31;2068576;69;20200;-86
2021/03/27 09:28:18;;;;;;;22.50;14.52;;;;;;;12.86;42.25;93099.22;2068077;69;20145;-80
2021/03/27 09:31:11;;;;;;;19.23;13.85;;;;;;;12.55;42.85;93104.44;2065060;69;20145;-82
2021/03/27 09:33:45;;;;;;;23.05;13.48;;;;;;;12.04;43.88;93112.66;2068091;69;20195;-82
2021/03/27 09:36:38;;;;;;;19.25;12.32;;;;;;;12.13;43.78;93111.78;2068025;69;20152;-83
2021/03/27 09:39:14;;;;;;;20.73;12.63;;;;;;;12.57;43.21;93110.22;2064673;69;20144;-82
2021/03/27 09:42:01;;;;;;;21.73;14.48;;;;;;;12.45;43.17;93110.94;2067964;69;20623;-83
2021/03/27 09:45:10;;;;;;;21.52;14.60;;;;;;;12.63;43.41;93111.31;2067986;69;20178;-79
2021/03/27 09:47:55;;;;;;;21.17;14.55;;;;;;;12.99;42.79;93106.34;2068048;69;20141;-79
2021/03/27 09:50:29;;;;;;;18.98;12.93;;;;;;;13.64;42.11;93110.06;2068082;69;20152;-80
2021/03/27 09:53:23;;;;;;;22.08;15.05;;;;;;;14.09;41.31;93106.13;2067876;69;20141;-77
2021/03/27 09:56:00;;;;;;;;;;;;;;;13.42;41.85;93106.75;2068324;69;20156;-80
2021/03/27 09:58:39;;;;;;;21.08;14.38;;;;;;;13.72;41.90;93109.78;2067991;69;20123;-82
2021/03/27 10:01:23;;;;;;;21.08;14.15;;;;;;;14.57;40.75;93113.69;2067942;69;20152;-81
2021/03/27 10:04:07;;;;;;;20.65;14.88;;;;;;;13.99;40.90;93109.16;2068170;69;20653;-82
2021/03/27 10:06:54;;;;;;;20.63;14.45;;;;;;;13.50;41.90;93112.09;2068024;69;20144;-81
2021/03/27 10:09:46;;;;;;;20.20;14.25;;;;;;;13.66;41.67;93109.47;2067953;69;20648;-82
2021/03/27 10:12:14;;;;;;;18.85;13.05;;;;;;;14.34;40.88;93111.00;2067949;69;20156;-80
2021/03/27 10:14:58;;;;;;;18.52;12.90;;;;;;;14.58;40.45;93105.94;2068061;69;20156;-79
2021/03/27 10:17:39;;;;;;;18.77;13.18;;;;;;;13.65;41.79;93100.25;2064669;69;20235;-81
2021/03/27 10:20:22;;;;;;;19.27;12.90;;;;;;;13.92;41.94;93107.34;2068075;69;20536;-82
2021/03/27 10:23:19;;;;;;;18.15;12.40;;;;;;;13.68;41.92;93101.81;2068135;69;20173;-76
2021/03/27 10:26:23;;;;;;;20.10;12.52;;;;;;;14.17;40.21;93107.31;2067679;69;20152;-80
2021/03/27 10:28:56;;;;;;;16.27;11.65;;;;;;;14.60;40.59;93111.69;2067946;69;20149;-82
2021/03/27 10:31:31;;;;;;;19.08;12.63;;;;;;;14.52;40.75;93105.59;2064541;69;20133;-78
2021/03/27 10:34:05;;;;;;;16.70;11.90;;;;;;;15.28;38.24;93113.03;2067853;69;20157;-82
2021/03/27 10:36:40;;;;;;;18.17;11.75;;;;;;;14.33;40.62;93118.03;2064533;69;20157;-83
2021/03/27 10:39:40;;;;;;;16.02;11.63;;;;;;;14.34;40.82;93120.25;2067711;69;20574;-83
2021/03/27 10:42:44;;;;;;;15.15;10.63;;;;;;;13.73;40.94;93114.81;2063725;69;20173;-80
2021/03/27 10:45:21;;;;;;;14.20;10.82;;;;;;;13.79;40.74;93125.75;2053726;70;20226;-83
2021/03/27 10:48:07;;;;;;;16.38;10.95;;;;;;;12.62;43.51;93128.88;2053730;70;20245;-80
2021/03/27 10:50:43;;;;;;;14.48;10.20;;;;;;;12.87;43.15;93119.75;2053771;70;20146;-83
2021/03/27 10:53:20;;;;;;;14.43;10.32;;;;;;;13.01;42.94;93125.50;2053674;70;20503;-84
2021/03/27 10:55:49;;;;;;;15.88;10.77;;;;;;;12.96;43.39;93133.00;2054150;70;20244;-84
2021/03/27 10:58:39;;;;;;;14.98;10.43;;;;;;;12.55;43.88;93129.84;2053784;70;20142;-83
2021/03/27 11:01:39;;;;;;;15.32;10.73;;;;;;;12.87;43.88;93128.22;2050863;70;20162;-71
2021/03/27 11:04:20;;;;;;;16.70;10.93;;;;;;;13.18;42.67;93133.56;2050889;70;20158;-71
2021/03/27 11:07:18;;;;;;;15.27;11.50;;;;;;;12.97;43.16;93129.56;2050912;70;20162;-72
2021/03/27 11:10:22;;;;;;;16.52;11.23;;;;;;;13.90;42.44;93133.44;2050824;70;20149;-75
2021/03/27 11:13:07;;;;;;;15.38;10.48;;;;;;;13.95;42.24;93125.91;2050750;70;20169;-81
2021/03/27 11:15:52;;;;;;;14.82;10.32;;;;;;;13.39;43.76;93139.06;2055448;69;20148;-73
2021/03/27 11:18:42;;;;;;;15.60;10.80;;;;;;;13.53;44.47;93146.91;2065110;69;20540;-74
2021/03/27 11:21:45;;;;;;;18.58;11.18;;;;;;;13.84;43.05;93149.38;2061619;69;20222;-75
2021/03/27 11:24:18;;;;;;;15.65;11.05;;;;;;;14.05;42.51;93151.22;2061551;69;20183;-73
2021/03/27 11:27:16;;;;;;;16.65;10.77;;;;;;;13.10;44.34;93152.88;2065015;69;20596;-74
2021/03/27 11:30:04;;;;;;;17.63;11.20;;;;;;;13.60;42.74;93143.06;2056761;69;20176;-81
2021/03/27 11:32:39;;;;;;;15.82;10.70;;;;;;;13.59;43.85;93144.41;2064787;69;20149;-73
2021/03/27 11:35:50;;;;;;;15.60;11.15;;;;;;;14.73;42.66;93142.16;2061477;69;20281;-71
2021/03/27 11:38:16;;;;;;;15.90;10.77;;;;;;;13.97;41.54;93146.59;2061770;69;20135;-71
2021/03/27 11:40:55;;;;;;;14.57;10.82;;;;;;;14.54;41.59;93154.63;2066289;69;20152;-71
2021/03/27 11:43:47;;;;;;;15.25;10.40;;;;;;;15.24;41.08;93156.09;2068439;69;20585;-72
2021/03/27 11:46:28;;;;;;;17.80;11.25;;;;;;;17.11;39.81;93163.53;2059382;69;20160;-72
2021/03/27 11:49:06;;;;;;;15.52;10.73;;;;;;;17.07;37.04;93169.03;2068504;69;20156;-71
2021/03/27 11:51:48;;;;;;;17.40;11.85;;;;;;;15.34;41.14;93164.38;2068346;69;20144;-76
2021/03/27 11:54:49;;;;;;;13.20;9.27;;;;;;;14.94;40.78;93164.53;2068416;69;20295;-75
2021/03/27 11:57:46;;;;;;;16.75;11.82;;;;;;;13.01;43.37;93162.97;2068473;69;20531;-75
2021/03/27 12:01:00;;;;;;;12.35;9.50;;;;;;;13.86;42.12;93172.84;2068475;69;20156;-74
2021/03/27 12:03:54;;;;;;;15.23;9.77;;;;;;;13.24;43.41;93162.25;2068421;69;20227;-74
2021/03/27 12:06:38;;;;;;;15.70;9.70;;;;;;;13.77;42.22;93161.69;2068467;69;20234;-72
2021/03/27 12:09:25;;;;;;;14.75;9.93;;;;;;;15.59;40.06;93155.00;2065009;69;20164;-73
2021/03/27 12:11:57;;;;;;;18.08;10.75;;;;;;;18.41;34.51;93157.53;2068321;69;20235;-75
2021/03/27 12:14:31;;;;;;;14.10;9.80;;;;;;;16.42;37.73;93156.16;2068445;69;20128;-71
2021/03/27 12:17:16;;;;;;;14.50;10.00;;;;;;;19.22;33.39;93159.16;2068495;69;20141;-76
2021/03/27 12:19:56;;;;;;;13.55;9.80;;;;;;;17.77;34.76;93156.41;2068599;69;20145;-72
2021/03/27 12:22:41;;;;;;;13.57;9.32;;;;;;;15.94;37.01;93155.34;2065334;69;20156;-77
2021/03/27 12:25:39;;;;;;;11.95;9.23;;;;;;;18.71;33.29;93163.72;2068379;69;20179;-74
2021/03/27 12:28:34;;;;;;;10.30;8.18;;;;;;;20.79;31.15;93167.97;2068387;69;20156;-71
2021/03/27 12:31:33;;;;;;;10.98;7.82;;;;;;;21.23;30.60;93164.25;2068266;69;20140;-78
2021/03/27 12:34:11;;;;;;;15.65;10.43;;;;;;;19.95;32.56;93164.56;2068335;69;20231;-73
2021/03/27 12:36:48;;;;;;;19.38;12.00;;;;;;;15.95;36.31;93158.91;2068336;69;20171;-73
2021/03/27 12:39:38;;;;;;;17.05;8.07;;;;;;;15.90;37.06;93154.41;2068214;69;20152;-73
2021/03/27 12:42:27;;;;;;;12.07;8.65;;;;;;;18.22;33.56;93167.50;2068460;69;20129;-73
2021/03/27 12:45:00;;;;;;;8.82;7.88;;;;;;;18.00;34.41;93161.63;2066635;69;20152;-75
2021/03/27 12:47:41;;;;;;;10.32;7.53;;;;;;;20.35;30.52;93163.72;2068260;69;20243;-74